sensor_id;sensor_type;location;lat;lon;timestamp;pressure;altitude;pressure_sealevel;temperature;humidity
3748;BME280;1889;50.058;8.688;2023-10-31T00:01:03;98460.47;;;15.38;98.06
3748;BME280;1889;50.058;8.688;2023-10-31T00:03:32;98457.33;;;15.46;97.33
3748;BME280;1889;50.058;8.688;2023-10-31T00:06:02;98462.56;;;15.40;95.83
3748;BME280;1889;50.058;8.688;2023-10-31T00:08:32;98468.05;;;15.37;96.57
3748;BME280;1889;50.058;8.688;2023-10-31T00:11:01;98467.84;;;15.47;95.73
3748;BME280;1889;50.058;8.688;2023-10-31T00:13:30;98467.84;;;15.47;95.73
3748;BME280;1889;50.058;8.688;2023-10-31T00:16:00;98475.28;;;15.14;95.44
3748;BME280;1889;50.058;8.688;2023-10-31T00:18:29;98484.71;;;15.25;95.27
3748;BME280;1889;50.058;8.688;2023-10-31T00:20:58;98484.71;;;15.25;95.27
3748;BME280;1889;50.058;8.688;2023-10-31T00:23:27;98483.66;;;15.35;94.79
3748;BME280;1889;50.058;8.688;2023-10-31T00:25:57;98487.84;;;15.17;94.13
3748;BME280;1889;50.058;8.688;2023-10-31T00:28:26;98487.84;;;15.17;93.87
3748;BME280;1889;50.058;8.688;2023-10-31T00:30:55;98484.74;;;15.04;93.58
3748;BME280;1889;50.058;8.688;2023-10-31T00:33:25;98501.66;;;15.08;93.25
3748;BME280;1889;50.058;8.688;2023-10-31T00:35:54;98507.27;;;15.04;92.80
3748;BME280;1889;50.058;8.688;2023-10-31T00:38:23;98515.30;;;14.67;92.96
3748;BME280;1889;50.058;8.688;2023-10-31T00:40:52;98520.59;;;14.67;93.51
3748;BME280;1889;50.058;8.688;2023-10-31T00:43:22;98520.44;;;14.47;92.99
3748;BME280;1889;50.058;8.688;2023-10-31T00:45:51;98528.88;;;14.31;93.97
3748;BME280;1889;50.058;8.688;2023-10-31T00:48:22;98525.09;;;14.50;94.01
3748;BME280;1889;50.058;8.688;2023-10-31T00:50:51;98529.56;;;14.64;93.15
3748;BME280;1889;50.058;8.688;2023-10-31T00:53:20;98530.58;;;14.55;90.95
3748;BME280;1889;50.058;8.688;2023-10-31T00:55:49;98532.09;;;14.36;91.90
3748;BME280;1889;50.058;8.688;2023-10-31T00:58:18;98518.12;;;14.71;90.95
3748;BME280;1889;50.058;8.688;2023-10-31T01:00:48;98520.01;;;14.76;88.35
3748;BME280;1889;50.058;8.688;2023-10-31T01:03:17;98523.58;;;14.61;87.68
3748;BME280;1889;50.058;8.688;2023-10-31T01:05:46;98523.58;;;14.61;87.68
3748;BME280;1889;50.058;8.688;2023-10-31T01:08:15;98540.00;;;14.81;88.52
3748;BME280;1889;50.058;8.688;2023-10-31T01:10:46;98538.47;;;14.84;88.30
3748;BME280;1889;50.058;8.688;2023-10-31T01:13:15;98538.47;;;14.84;88.30
3748;BME280;1889;50.058;8.688;2023-10-31T01:15:44;98538.05;;;14.55;88.42
3748;BME280;1889;50.058;8.688;2023-10-31T01:18:14;98532.31;;;14.77;87.80
3748;BME280;1889;50.058;8.688;2023-10-31T01:20:43;98531.58;;;14.75;86.63
3748;BME280;1889;50.058;8.688;2023-10-31T01:23:12;98531.58;;;14.75;86.63
3748;BME280;1889;50.058;8.688;2023-10-31T01:25:42;98522.66;;;14.76;84.87
3748;BME280;1889;50.058;8.688;2023-10-31T01:28:11;98529.11;;;14.86;85.75
3748;BME280;1889;50.058;8.688;2023-10-31T01:30:40;98529.78;;;15.04;84.71
3748;BME280;1889;50.058;8.688;2023-10-31T01:33:09;98537.73;;;14.89;83.92
3748;BME280;1889;50.058;8.688;2023-10-31T01:35:38;98533.89;;;14.51;85.30
3748;BME280;1889;50.058;8.688;2023-10-31T01:38:08;98533.89;;;14.51;85.30
3748;BME280;1889;50.058;8.688;2023-10-31T01:40:37;98545.05;;;14.33;85.74
3748;BME280;1889;50.058;8.688;2023-10-31T01:43:06;98550.81;;;14.33;86.52
3748;BME280;1889;50.058;8.688;2023-10-31T01:45:36;98550.05;;;14.31;85.87
3748;BME280;1889;50.058;8.688;2023-10-31T01:48:05;98550.05;;;14.31;85.87
3748;BME280;1889;50.058;8.688;2023-10-31T01:50:34;98552.02;;;14.04;85.96
3748;BME280;1889;50.058;8.688;2023-10-31T01:53:03;98552.02;;;14.04;85.96
3748;BME280;1889;50.058;8.688;2023-10-31T01:55:33;98554.80;;;14.10;86.49
3748;BME280;1889;50.058;8.688;2023-10-31T01:58:03;98554.80;;;14.10;85.56
3748;BME280;1889;50.058;8.688;2023-10-31T02:00:33;98559.63;;;14.10;86.04
3748;BME280;1889;50.058;8.688;2023-10-31T02:03:03;98559.63;;;14.10;86.04
3748;BME280;1889;50.058;8.688;2023-10-31T02:05:33;98561.00;;;14.25;84.85
3748;BME280;1889;50.058;8.688;2023-10-31T02:08:03;98557.88;;;14.25;83.88
3748;BME280;1889;50.058;8.688;2023-10-31T02:10:32;98562.08;;;14.13;84.81
3748;BME280;1889;50.058;8.688;2023-10-31T02:13:11;98562.08;;;14.13;84.81
3748;BME280;1889;50.058;8.688;2023-10-31T02:15:41;98561.41;;;14.33;84.03
3748;BME280;1889;50.058;8.688;2023-10-31T02:18:11;98566.37;;;14.39;83.48
3748;BME280;1889;50.058;8.688;2023-10-31T02:20:41;98566.37;;;14.39;83.48
3748;BME280;1889;50.058;8.688;2023-10-31T02:23:10;98567.74;;;14.37;83.33
3748;BME280;1889;50.058;8.688;2023-10-31T02:25:39;98567.74;;;14.37;83.33
3748;BME280;1889;50.058;8.688;2023-10-31T02:28:09;98564.83;;;14.35;83.70
3748;BME280;1889;50.058;8.688;2023-10-31T02:30:38;98571.93;;;14.64;82.74
3748;BME280;1889;50.058;8.688;2023-10-31T02:33:07;98576.97;;;14.46;81.42
3748;BME280;1889;50.058;8.688;2023-10-31T02:35:37;98579.64;;;14.53;81.94
3748;BME280;1889;50.058;8.688;2023-10-31T02:38:06;98573.87;;;14.31;83.67
3748;BME280;1889;50.058;8.688;2023-10-31T02:40:35;98587.09;;;14.08;85.04
3748;BME280;1889;50.058;8.688;2023-10-31T02:43:05;98587.09;;;14.08;85.04
3748;BME280;1889;50.058;8.688;2023-10-31T02:45:34;98585.59;;;14.27;84.35
3748;BME280;1889;50.058;8.688;2023-10-31T02:48:03;98596.00;;;14.14;83.68
3748;BME280;1889;50.058;8.688;2023-10-31T02:50:32;98590.22;;;14.30;83.26
3748;BME280;1889;50.058;8.688;2023-10-31T02:53:02;98595.48;;;14.39;81.49
3748;BME280;1889;50.058;8.688;2023-10-31T02:55:32;98607.39;;;14.39;82.61
3748;BME280;1889;50.058;8.688;2023-10-31T02:58:01;98607.39;;;14.39;82.61
3748;BME280;1889;50.058;8.688;2023-10-31T03:00:30;98607.80;;;14.47;81.70
3748;BME280;1889;50.058;8.688;2023-10-31T03:02:59;98610.33;;;14.64;80.16
3748;BME280;1889;50.058;8.688;2023-10-31T03:05:29;98610.33;;;14.64;80.16
3748;BME280;1889;50.058;8.688;2023-10-31T03:07:58;98609.31;;;14.35;81.16
3748;BME280;1889;50.058;8.688;2023-10-31T03:10:27;98624.23;;;14.45;81.31
3748;BME280;1889;50.058;8.688;2023-10-31T03:12:57;98624.23;;;14.45;81.31
3748;BME280;1889;50.058;8.688;2023-10-31T03:15:27;98633.36;;;14.55;80.37
3748;BME280;1889;50.058;8.688;2023-10-31T03:17:56;98637.70;;;14.49;80.27
3748;BME280;1889;50.058;8.688;2023-10-31T03:20:26;98646.81;;;14.28;80.50
3748;BME280;1889;50.058;8.688;2023-10-31T03:22:55;98644.77;;;14.33;80.68
3748;BME280;1889;50.058;8.688;2023-10-31T03:25:24;98646.81;;;14.28;80.83
3748;BME280;1889;50.058;8.688;2023-10-31T03:27:53;98643.35;;;14.43;80.61
3748;BME280;1889;50.058;8.688;2023-10-31T03:30:23;98634.50;;;14.51;79.78
3748;BME280;1889;50.058;8.688;2023-10-31T03:32:52;98634.50;;;14.51;79.78
3748;BME280;1889;50.058;8.688;2023-10-31T03:35:22;98650.91;;;14.42;79.65
3748;BME280;1889;50.058;8.688;2023-10-31T03:37:51;98666.63;;;14.52;79.73
3748;BME280;1889;50.058;8.688;2023-10-31T03:40:20;98666.63;;;14.52;79.73
3748;BME280;1889;50.058;8.688;2023-10-31T03:42:50;98665.63;;;14.62;78.70
3748;BME280;1889;50.058;8.688;2023-10-31T03:45:19;98682.45;;;14.61;79.13
3748;BME280;1889;50.058;8.688;2023-10-31T03:47:49;98682.45;;;14.61;79.13
3748;BME280;1889;50.058;8.688;2023-10-31T03:50:18;98689.24;;;14.73;78.15
3748;BME280;1889;50.058;8.688;2023-10-31T03:52:47;98689.24;;;14.73;78.15
3748;BME280;1889;50.058;8.688;2023-10-31T03:55:16;98688.50;;;14.56;78.32
3748;BME280;1889;50.058;8.688;2023-10-31T03:57:46;98684.47;;;14.64;78.14
3748;BME280;1889;50.058;8.688;2023-10-31T04:00:15;98688.30;;;14.11;79.90
3748;BME280;1889;50.058;8.688;2023-10-31T04:02:45;98689.97;;;14.21;78.88
3748;BME280;1889;50.058;8.688;2023-10-31T04:05:14;98691.95;;;14.33;79.12
3748;BME280;1889;50.058;8.688;2023-10-31T04:07:44;98691.95;;;14.33;79.12
3748;BME280;1889;50.058;8.688;2023-10-31T04:10:13;98692.74;;;14.51;78.22
3748;BME280;1889;50.058;8.688;2023-10-31T04:12:42;98691.37;;;14.35;79.01
3748;BME280;1889;50.058;8.688;2023-10-31T04:15:12;98696.02;;;14.47;78.43
3748;BME280;1889;50.058;8.688;2023-10-31T04:17:41;98694.56;;;14.58;78.22
3748;BME280;1889;50.058;8.688;2023-10-31T04:20:10;98695.30;;;14.28;79.24
3748;BME280;1889;50.058;8.688;2023-10-31T04:22:40;98691.91;;;14.26;79.73
3748;BME280;1889;50.058;8.688;2023-10-31T04:25:09;98694.75;;;14.14;79.47
3748;BME280;1889;50.058;8.688;2023-10-31T04:27:38;98697.05;;;14.21;80.28
3748;BME280;1889;50.058;8.688;2023-10-31T04:30:08;98697.05;;;14.21;80.28
3748;BME280;1889;50.058;8.688;2023-10-31T04:32:37;98706.34;;;13.96;81.96
3748;BME280;1889;50.058;8.688;2023-10-31T04:35:07;98702.70;;;13.90;82.52
3748;BME280;1889;50.058;8.688;2023-10-31T04:37:36;98708.80;;;14.08;82.01
3748;BME280;1889;50.058;8.688;2023-10-31T04:40:06;98700.89;;;13.75;83.86
3748;BME280;1889;50.058;8.688;2023-10-31T04:42:35;98704.84;;;13.84;82.69
3748;BME280;1889;50.058;8.688;2023-10-31T04:45:05;98704.84;;;13.84;82.69
3748;BME280;1889;50.058;8.688;2023-10-31T04:47:35;98716.64;;;13.61;86.87
3748;BME280;1889;50.058;8.688;2023-10-31T04:50:04;98716.64;;;13.61;86.87
3748;BME280;1889;50.058;8.688;2023-10-31T04:52:33;98706.77;;;13.47;86.27
3748;BME280;1889;50.058;8.688;2023-10-31T04:55:03;98717.19;;;13.59;86.64
3748;BME280;1889;50.058;8.688;2023-10-31T04:57:32;98717.19;;;13.59;86.64
3748;BME280;1889;50.058;8.688;2023-10-31T05:00:01;98717.20;;;13.83;85.27
3748;BME280;1889;50.058;8.688;2023-10-31T05:02:32;98717.20;;;13.83;85.27
3748;BME280;1889;50.058;8.688;2023-10-31T05:05:02;98718.64;;;13.64;85.91
3748;BME280;1889;50.058;8.688;2023-10-31T05:07:31;98716.64;;;13.61;86.22
3748;BME280;1889;50.058;8.688;2023-10-31T05:10:00;98710.30;;;13.72;85.56
3748;BME280;1889;50.058;8.688;2023-10-31T05:12:30;98727.00;;;14.05;83.30
3748;BME280;1889;50.058;8.688;2023-10-31T05:14:59;98732.42;;;14.11;83.21
3748;BME280;1889;50.058;8.688;2023-10-31T05:17:28;98733.20;;;14.29;82.40
3748;BME280;1889;50.058;8.688;2023-10-31T05:19:58;98742.23;;;14.33;81.92
3748;BME280;1889;50.058;8.688;2023-10-31T05:22:27;98742.23;;;14.33;81.92
3748;BME280;1889;50.058;8.688;2023-10-31T05:24:56;98737.56;;;14.30;81.70
3748;BME280;1889;50.058;8.688;2023-10-31T05:27:25;98736.89;;;14.10;82.47
3748;BME280;1889;50.058;8.688;2023-10-31T05:29:55;98738.30;;;14.25;81.81
3748;BME280;1889;50.058;8.688;2023-10-31T05:32:24;98738.30;;;14.25;81.81
3748;BME280;1889;50.058;8.688;2023-10-31T05:34:53;98741.80;;;14.25;81.08
3748;BME280;1889;50.058;8.688;2023-10-31T05:37:23;98741.80;;;14.25;81.08
3748;BME280;1889;50.058;8.688;2023-10-31T05:39:52;98741.66;;;14.35;80.55
3748;BME280;1889;50.058;8.688;2023-10-31T05:42:21;98741.66;;;14.35;80.55
3748;BME280;1889;50.058;8.688;2023-10-31T05:44:51;98746.25;;;13.67;83.32
3748;BME280;1889;50.058;8.688;2023-10-31T05:47:20;98757.27;;;13.84;83.15
3748;BME280;1889;50.058;8.688;2023-10-31T05:49:50;98757.27;;;13.84;83.15
3748;BME280;1889;50.058;8.688;2023-10-31T05:52:19;98753.30;;;13.84;82.98
3748;BME280;1889;50.058;8.688;2023-10-31T05:54:49;98759.70;;;14.20;81.32
3748;BME280;1889;50.058;8.688;2023-10-31T05:57:18;98760.13;;;14.12;80.73
3748;BME280;1889;50.058;8.688;2023-10-31T05:59:47;98760.13;;;14.12;80.73
3748;BME280;1889;50.058;8.688;2023-10-31T06:02:17;98764.51;;;14.05;80.93
3748;BME280;1889;50.058;8.688;2023-10-31T06:04:46;98770.24;;;14.13;80.14
3748;BME280;1889;50.058;8.688;2023-10-31T06:07:15;98779.06;;;13.55;81.96
3748;BME280;1889;50.058;8.688;2023-10-31T06:09:44;98779.06;;;13.55;81.96
3748;BME280;1889;50.058;8.688;2023-10-31T06:12:14;98784.61;;;14.00;81.30
3748;BME280;1889;50.058;8.688;2023-10-31T06:14:44;98784.61;;;14.00;81.30
3748;BME280;1889;50.058;8.688;2023-10-31T06:17:13;98783.63;;;13.86;80.57
3748;BME280;1889;50.058;8.688;2023-10-31T06:19:42;98793.92;;;14.07;79.87
3748;BME280;1889;50.058;8.688;2023-10-31T06:22:13;98794.91;;;14.13;80.02
3748;BME280;1889;50.058;8.688;2023-10-31T06:24:42;98794.91;;;14.13;80.02
3748;BME280;1889;50.058;8.688;2023-10-31T06:27:12;98799.84;;;13.95;80.17
3748;BME280;1889;50.058;8.688;2023-10-31T06:29:42;98799.84;;;13.95;80.17
3748;BME280;1889;50.058;8.688;2023-10-31T06:32:11;98816.30;;;13.93;80.36
3748;BME280;1889;50.058;8.688;2023-10-31T06:34:40;98820.20;;;13.86;80.35
3748;BME280;1889;50.058;8.688;2023-10-31T06:37:10;98827.36;;;13.67;81.42
3748;BME280;1889;50.058;8.688;2023-10-31T06:39:39;98831.25;;;13.68;81.75
3748;BME280;1889;50.058;8.688;2023-10-31T06:42:08;98827.82;;;13.75;81.23
3748;BME280;1889;50.058;8.688;2023-10-31T06:44:38;98844.40;;;13.70;81.69
3748;BME280;1889;50.058;8.688;2023-10-31T06:47:07;98846.40;;;13.82;81.05
3748;BME280;1889;50.058;8.688;2023-10-31T06:49:36;98849.95;;;13.98;80.40
3748;BME280;1889;50.058;8.688;2023-10-31T06:52:06;98849.76;;;13.68;81.10
3748;BME280;1889;50.058;8.688;2023-10-31T06:54:35;98857.05;;;13.81;80.69
3748;BME280;1889;50.058;8.688;2023-10-31T06:57:04;98857.10;;;14.05;79.39
3748;BME280;1889;50.058;8.688;2023-10-31T06:59:34;98862.52;;;13.78;80.25
3748;BME280;1889;50.058;8.688;2023-10-31T07:02:04;98854.25;;;14.01;79.40
3748;BME280;1889;50.058;8.688;2023-10-31T07:04:33;98860.34;;;13.86;79.27
3748;BME280;1889;50.058;8.688;2023-10-31T07:07:02;98860.34;;;13.86;79.27
3748;BME280;1889;50.058;8.688;2023-10-31T07:09:32;98858.44;;;13.88;78.71
3748;BME280;1889;50.058;8.688;2023-10-31T07:12:01;98858.44;;;13.88;78.71
3748;BME280;1889;50.058;8.688;2023-10-31T07:14:31;98853.62;;;13.79;78.78
3748;BME280;1889;50.058;8.688;2023-10-31T07:17:00;98866.94;;;13.94;78.92
3748;BME280;1889;50.058;8.688;2023-10-31T07:19:29;98866.94;;;13.94;78.92
3748;BME280;1889;50.058;8.688;2023-10-31T07:21:58;98881.59;;;13.40;79.74
3748;BME280;1889;50.058;8.688;2023-10-31T07:24:28;98883.10;;;13.88;77.91
3748;BME280;1889;50.058;8.688;2023-10-31T07:26:57;98883.10;;;13.88;77.91
3748;BME280;1889;50.058;8.688;2023-10-31T07:29:26;98895.46;;;14.05;77.67
3748;BME280;1889;50.058;8.688;2023-10-31T07:31:56;98897.42;;;14.19;77.11
3748;BME280;1889;50.058;8.688;2023-10-31T07:34:25;98901.80;;;13.94;76.90
3748;BME280;1889;50.058;8.688;2023-10-31T07:36:54;98901.80;;;13.94;76.90
3748;BME280;1889;50.058;8.688;2023-10-31T07:39:25;98900.92;;;13.67;78.35
3748;BME280;1889;50.058;8.688;2023-10-31T07:41:54;98900.92;;;13.67;78.35
3748;BME280;1889;50.058;8.688;2023-10-31T07:44:23;98923.92;;;13.57;79.23
3748;BME280;1889;50.058;8.688;2023-10-31T07:46:53;98922.23;;;13.82;76.92
3748;BME280;1889;50.058;8.688;2023-10-31T07:49:22;98922.23;;;13.82;76.92
3748;BME280;1889;50.058;8.688;2023-10-31T07:51:51;98931.47;;;13.64;77.19
3748;BME280;1889;50.058;8.688;2023-10-31T07:54:21;98934.52;;;13.74;76.90
3748;BME280;1889;50.058;8.688;2023-10-31T07:56:50;98936.56;;;13.86;76.39
3748;BME280;1889;50.058;8.688;2023-10-31T07:59:19;98932.58;;;13.69;75.75
3748;BME280;1889;50.058;8.688;2023-10-31T08:01:48;98938.61;;;13.62;75.61
3748;BME280;1889;50.058;8.688;2023-10-31T08:04:19;98943.21;;;13.59;77.34
3748;BME280;1889;50.058;8.688;2023-10-31T08:06:49;98953.02;;;13.65;76.79
3748;BME280;1889;50.058;8.688;2023-10-31T08:09:18;98947.80;;;13.64;76.45
3748;BME280;1889;50.058;8.688;2023-10-31T08:11:47;98947.80;;;13.64;76.45
3748;BME280;1889;50.058;8.688;2023-10-31T08:14:17;98953.92;;;14.09;75.21
3748;BME280;1889;50.058;8.688;2023-10-31T08:16:46;98953.92;;;14.09;75.21
3748;BME280;1889;50.058;8.688;2023-10-31T08:19:15;98961.00;;;14.08;75.22
3748;BME280;1889;50.058;8.688;2023-10-31T08:21:44;98962.46;;;14.05;74.59
3748;BME280;1889;50.058;8.688;2023-10-31T08:24:14;98965.36;;;14.01;75.38
3748;BME280;1889;50.058;8.688;2023-10-31T08:26:43;98965.36;;;14.01;75.38
3748;BME280;1889;50.058;8.688;2023-10-31T08:29:12;98963.00;;;14.21;74.33
3748;BME280;1889;50.058;8.688;2023-10-31T08:31:42;98964.63;;;13.89;75.04
3748;BME280;1889;50.058;8.688;2023-10-31T08:34:11;98964.63;;;13.89;75.04
3748;BME280;1889;50.058;8.688;2023-10-31T08:36:40;98970.45;;;13.87;75.67
3748;BME280;1889;50.058;8.688;2023-10-31T08:39:10;98974.91;;;14.12;74.62
3748;BME280;1889;50.058;8.688;2023-10-31T08:41:55;98974.91;;;14.12;74.62
3748;BME280;1889;50.058;8.688;2023-10-31T08:44:20;98975.30;;;13.96;74.37
3748;BME280;1889;50.058;8.688;2023-10-31T08:46:50;98976.70;;;14.11;75.38
3748;BME280;1889;50.058;8.688;2023-10-31T08:49:19;98981.52;;;14.12;73.77
3748;BME280;1889;50.058;8.688;2023-10-31T08:51:48;98980.67;;;14.20;74.25
3748;BME280;1889;50.058;8.688;2023-10-31T08:54:18;98988.92;;;14.05;74.46
3748;BME280;1889;50.058;8.688;2023-10-31T08:56:47;98988.92;;;14.05;74.46
3748;BME280;1889;50.058;8.688;2023-10-31T08:59:16;99000.13;;;14.36;73.74
3748;BME280;1889;50.058;8.688;2023-10-31T09:01:45;99000.13;;;14.36;73.74
3748;BME280;1889;50.058;8.688;2023-10-31T09:04:15;99006.99;;;14.32;73.10
3748;BME280;1889;50.058;8.688;2023-10-31T09:06:44;99012.28;;;14.32;72.36
3748;BME280;1889;50.058;8.688;2023-10-31T09:09:13;99019.82;;;14.13;73.83
3748;BME280;1889;50.058;8.688;2023-10-31T09:11:43;99010.10;;;14.23;72.82
3748;BME280;1889;50.058;8.688;2023-10-31T09:14:12;99010.10;;;14.23;72.82
3748;BME280;1889;50.058;8.688;2023-10-31T09:16:41;99021.12;;;14.49;72.90
3748;BME280;1889;50.058;8.688;2023-10-31T09:19:11;99022.62;;;14.28;72.44
3748;BME280;1889;50.058;8.688;2023-10-31T09:21:41;99019.00;;;14.56;72.29
3748;BME280;1889;50.058;8.688;2023-10-31T09:24:10;99022.11;;;14.64;72.11
3748;BME280;1889;50.058;8.688;2023-10-31T09:26:43;99022.11;;;14.64;72.11
3748;BME280;1889;50.058;8.688;2023-10-31T09:29:12;99034.64;;;14.43;71.16
3748;BME280;1889;50.058;8.688;2023-10-31T09:31:41;99034.64;;;14.43;71.16
3748;BME280;1889;50.058;8.688;2023-10-31T09:34:11;99043.63;;;14.41;71.87
3748;BME280;1889;50.058;8.688;2023-10-31T09:36:40;99043.51;;;14.68;71.34
3748;BME280;1889;50.058;8.688;2023-10-31T09:39:11;99046.63;;;14.68;70.85
3748;BME280;1889;50.058;8.688;2023-10-31T09:41:40;99060.04;;;14.73;70.48
3748;BME280;1889;50.058;8.688;2023-10-31T09:44:10;99060.04;;;14.73;70.48
3748;BME280;1889;50.058;8.688;2023-10-31T09:46:40;99054.71;;;14.99;69.48
3748;BME280;1889;50.058;8.688;2023-10-31T09:49:09;99054.71;;;14.99;69.48
3748;BME280;1889;50.058;8.688;2023-10-31T09:51:39;99050.38;;;14.72;69.51
3748;BME280;1889;50.058;8.688;2023-10-31T09:54:09;99053.89;;;14.64;70.35
3748;BME280;1889;50.058;8.688;2023-10-31T09:56:42;99048.84;;;14.42;70.33
3748;BME280;1889;50.058;8.688;2023-10-31T09:59:13;99045.38;;;14.32;72.08
3748;BME280;1889;50.058;8.688;2023-10-31T10:01:42;99048.27;;;14.70;69.83
3748;BME280;1889;50.058;8.688;2023-10-31T10:04:11;99041.71;;;14.77;68.83
3748;BME280;1889;50.058;8.688;2023-10-31T10:06:51;99041.71;;;14.77;68.83
3748;BME280;1889;50.058;8.688;2023-10-31T10:09:21;99056.47;;;14.12;71.03
3748;BME280;1889;50.058;8.688;2023-10-31T10:11:52;99049.94;;;14.20;71.79
3748;BME280;1889;50.058;8.688;2023-10-31T10:14:23;99048.92;;;14.49;70.78
3748;BME280;1889;50.058;8.688;2023-10-31T10:16:53;99047.48;;;14.34;70.63
3748;BME280;1889;50.058;8.688;2023-10-31T10:19:22;99047.87;;;14.69;69.28
3748;BME280;1889;50.058;8.688;2023-10-31T10:21:57;99047.27;;;14.38;69.42
3748;BME280;1889;50.058;8.688;2023-10-31T10:24:27;99056.27;;;14.17;71.27
3748;BME280;1889;50.058;8.688;2023-10-31T10:26:56;99056.27;;;14.17;71.27
3748;BME280;1889;50.058;8.688;2023-10-31T10:29:26;99043.77;;;14.64;69.34
3748;BME280;1889;50.058;8.688;2023-10-31T10:31:55;99036.89;;;14.68;68.58
3748;BME280;1889;50.058;8.688;2023-10-31T10:34:25;99045.46;;;14.82;68.96
3748;BME280;1889;50.058;8.688;2023-10-31T10:36:55;99043.48;;;14.85;68.37
3748;BME280;1889;50.058;8.688;2023-10-31T10:39:25;99043.48;;;14.85;68.37
3748;BME280;1889;50.058;8.688;2023-10-31T10:41:56;99045.06;;;14.89;67.96
3748;BME280;1889;50.058;8.688;2023-10-31T10:44:34;99045.06;;;14.89;67.96
3748;BME280;1889;50.058;8.688;2023-10-31T10:47:05;99044.66;;;14.28;69.94
3748;BME280;1889;50.058;8.688;2023-10-31T10:49:36;99044.09;;;14.04;71.16
3748;BME280;1889;50.058;8.688;2023-10-31T10:52:22;99045.80;;;14.05;71.91
3748;BME280;1889;50.058;8.688;2023-10-31T10:55:01;99045.80;;;14.05;71.91
3748;BME280;1889;50.058;8.688;2023-10-31T10:57:42;99040.58;;;14.40;70.45
3748;BME280;1889;50.058;8.688;2023-10-31T11:00:07;99047.20;;;14.66;70.00
3748;BME280;1889;50.058;8.688;2023-10-31T11:02:40;99052.15;;;14.89;69.51
3748;BME280;1889;50.058;8.688;2023-10-31T11:05:10;99054.02;;;14.78;68.59
3748;BME280;1889;50.058;8.688;2023-10-31T11:07:41;99054.02;;;14.78;68.59
3748;BME280;1889;50.058;8.688;2023-10-31T11:10:11;99050.75;;;14.91;67.93
3748;BME280;1889;50.058;8.688;2023-10-31T11:12:41;99049.52;;;15.13;66.64
3748;BME280;1889;50.058;8.688;2023-10-31T11:15:13;99049.52;;;15.13;66.64
3748;BME280;1889;50.058;8.688;2023-10-31T11:17:44;99042.88;;;15.22;65.65
3748;BME280;1889;50.058;8.688;2023-10-31T11:20:15;99040.92;;;15.17;64.88
3748;BME280;1889;50.058;8.688;2023-10-31T11:22:46;99040.92;;;15.17;64.88
3748;BME280;1889;50.058;8.688;2023-10-31T11:25:20;99030.98;;;14.72;66.81
3748;BME280;1889;50.058;8.688;2023-10-31T11:27:51;99030.98;;;14.72;66.81
3748;BME280;1889;50.058;8.688;2023-10-31T11:30:27;99037.92;;;14.74;66.29
3748;BME280;1889;50.058;8.688;2023-10-31T11:32:58;99041.89;;;15.16;65.66
3748;BME280;1889;50.058;8.688;2023-10-31T11:35:33;99051.23;;;14.81;66.51
3748;BME280;1889;50.058;8.688;2023-10-31T11:38:04;99051.23;;;14.81;66.51
3748;BME280;1889;50.058;8.688;2023-10-31T11:40:36;99047.56;;;15.08;65.69
3748;BME280;1889;50.058;8.688;2023-10-31T11:43:06;99047.56;;;15.08;65.69
3748;BME280;1889;50.058;8.688;2023-10-31T11:45:41;99049.13;;;14.62;67.47
3748;BME280;1889;50.058;8.688;2023-10-31T11:48:12;99049.13;;;14.62;67.47
3748;BME280;1889;50.058;8.688;2023-10-31T11:50:42;99048.98;;;15.15;66.03
3748;BME280;1889;50.058;8.688;2023-10-31T11:53:13;99054.75;;;15.15;66.11
3748;BME280;1889;50.058;8.688;2023-10-31T11:55:46;99053.97;;;15.37;64.86
3748;BME280;1889;50.058;8.688;2023-10-31T11:58:24;99053.97;;;15.37;64.86
3748;BME280;1889;50.058;8.688;2023-10-31T12:01:05;99059.44;;;15.50;64.16
3748;BME280;1889;50.058;8.688;2023-10-31T12:03:43;99065.53;;;14.95;64.68
3748;BME280;1889;50.058;8.688;2023-10-31T12:06:20;99066.08;;;15.25;64.81
3748;BME280;1889;50.058;8.688;2023-10-31T12:08:50;99067.94;;;15.08;64.40
3748;BME280;1889;50.058;8.688;2023-10-31T12:11:21;99067.94;;;15.08;64.40
3748;BME280;1889;50.058;8.688;2023-10-31T12:13:55;99074.47;;;15.34;64.03
3748;BME280;1889;50.058;8.688;2023-10-31T12:16:32;99074.47;;;15.34;64.03
3748;BME280;1889;50.058;8.688;2023-10-31T12:19:03;99081.47;;;15.43;63.49
3748;BME280;1889;50.058;8.688;2023-10-31T12:21:46;99084.09;;;15.52;62.24
3748;BME280;1889;50.058;8.688;2023-10-31T12:24:17;99084.09;;;15.52;62.24
3748;BME280;1889;50.058;8.688;2023-10-31T12:26:47;99085.89;;;15.60;63.26
3748;BME280;1889;50.058;8.688;2023-10-31T12:29:20;99088.58;;;15.67;63.91
3748;BME280;1889;50.058;8.688;2023-10-31T12:31:51;99096.42;;;15.77;62.66
3748;BME280;1889;50.058;8.688;2023-10-31T12:34:22;99096.42;;;15.77;62.66
3748;BME280;1889;50.058;8.688;2023-10-31T12:36:53;99103.92;;;15.78;62.55
3748;BME280;1889;50.058;8.688;2023-10-31T12:39:25;99104.23;;;15.80;62.45
3748;BME280;1889;50.058;8.688;2023-10-31T12:41:55;99097.87;;;15.98;61.58
3748;BME280;1889;50.058;8.688;2023-10-31T12:44:26;99097.87;;;15.98;61.58
3748;BME280;1889;50.058;8.688;2023-10-31T12:46:56;99100.55;;;16.06;61.73
3748;BME280;1889;50.058;8.688;2023-10-31T12:49:26;99100.55;;;16.06;61.73
3748;BME280;1889;50.058;8.688;2023-10-31T12:54:37;99104.72;;;16.18;61.65
3748;BME280;1889;50.058;8.688;2023-10-31T12:57:07;99109.45;;;16.13;61.22
3748;BME280;1889;50.058;8.688;2023-10-31T12:59:38;99109.45;;;16.13;61.22
3748;BME280;1889;50.058;8.688;2023-10-31T13:02:08;99113.27;;;16.23;62.01
3748;BME280;1889;50.058;8.688;2023-10-31T13:04:38;99110.58;;;16.16;61.08
3748;BME280;1889;50.058;8.688;2023-10-31T13:07:08;99110.11;;;16.17;60.91
3748;BME280;1889;50.058;8.688;2023-10-31T13:09:38;99110.11;;;16.17;60.91
3748;BME280;1889;50.058;8.688;2023-10-31T13:12:09;99117.61;;;16.40;61.16
3748;BME280;1889;50.058;8.688;2023-10-31T13:14:42;99119.66;;;16.51;60.99
3748;BME280;1889;50.058;8.688;2023-10-31T13:17:11;99116.12;;;16.43;60.63
3748;BME280;1889;50.058;8.688;2023-10-31T13:19:41;99116.28;;;16.40;61.16
3748;BME280;1889;50.058;8.688;2023-10-31T13:22:10;99125.11;;;16.40;60.72
3748;BME280;1889;50.058;8.688;2023-10-31T13:24:39;99120.19;;;16.41;61.12
3748;BME280;1889;50.058;8.688;2023-10-31T13:27:09;99115.59;;;16.29;60.96
3748;BME280;1889;50.058;8.688;2023-10-31T13:29:40;99115.56;;;16.45;61.26
3748;BME280;1889;50.058;8.688;2023-10-31T13:32:09;99119.88;;;16.39;61.29
3748;BME280;1889;50.058;8.688;2023-10-31T13:34:38;99123.23;;;16.43;60.92
3748;BME280;1889;50.058;8.688;2023-10-31T13:37:08;99119.35;;;16.48;61.55
3748;BME280;1889;50.058;8.688;2023-10-31T13:39:37;99119.35;;;16.48;61.55